SWA3902 KPHX-KSNA
Flight info
| Callsign | SWA3902 |
|---|---|
| Flight time | 0h 51m |
| Altitude | 32000 |
| Route | KEENS3 HRRBR EMLLD DSNEE6 |
| Aircraft | B737/M-SDE2E3FGHIRWXY/LB1 |
Departure
| Time | 2026-05-06 13:41 |
|---|---|
| Airport | Phoenix Sky Harbor International Airport (KPHX) |
Arrival
| Time | 2026-05-06 14:32 |
|---|---|
| Airport | John Wayne Orange County International Airport (KSNA) |
| Time | Latitude | Longitude | Altitude | Speed | Heading |
|---|---|---|---|---|---|
| 2026-05-06 13:16 | 33.43373 | -111.99627 | 1123 ft | 0 kts | 317° |
| 2026-05-06 13:34 | 33.43365 | -111.99619 | 1123 ft | 4 kts | 314° |
| 2026-05-06 13:35 | 33.43349 | -111.99594 | 1113 ft | 4 kts | 286° |
| 2026-05-06 13:35 | 33.43347 | -111.99575 | 1113 ft | 4 kts | 196° |
| 2026-05-06 13:35 | 33.43350 | -111.99574 | 1113 ft | 1 kts | 180° |
| 2026-05-06 13:38 | 33.43330 | -111.99573 | 1117 ft | 7 kts | 178° |
| 2026-05-06 13:38 | 33.43267 | -111.99559 | 1119 ft | 10 kts | 167° |
| 2026-05-06 13:39 | 33.43215 | -111.99511 | 1121 ft | 10 kts | 102° |
| 2026-05-06 13:39 | 33.43214 | -111.99428 | 1123 ft | 10 kts | 91° |
| 2026-05-06 13:39 | 33.43208 | -111.99356 | 1124 ft | 9 kts | 117° |
| 2026-05-06 13:39 | 33.43154 | -111.99343 | 1134 ft | 8 kts | 182° |
| 2026-05-06 13:40 | 33.43105 | -111.99361 | 1133 ft | 8 kts | 242° |
| 2026-05-06 13:40 | 33.43104 | -111.99470 | 1131 ft | 34 kts | 270° |
| 2026-05-06 13:40 | 33.43104 | -112.00056 | 1131 ft | 106 kts | 270° |
| 2026-05-06 13:40 | 33.43107 | -112.01190 | 1130 ft | 164 kts | 270° |
| 2026-05-06 13:41 | 33.43122 | -112.02657 | 1598 ft | 180 kts | 269° |
| 2026-05-06 13:41 | 33.43102 | -112.04193 | 2337 ft | 190 kts | 268° |
| 2026-05-06 13:41 | 33.43064 | -112.05831 | 2832 ft | 208 kts | 268° |
| 2026-05-06 13:41 | 33.42891 | -112.07631 | 3215 ft | 225 kts | 253° |
| 2026-05-06 13:42 | 33.42282 | -112.09447 | 3585 ft | 247 kts | 247° |
| 2026-05-06 13:42 | 33.41593 | -112.11451 | 4039 ft | 265 kts | 250° |
| 2026-05-06 13:42 | 33.40954 | -112.13487 | 4966 ft | 265 kts | 250° |
| 2026-05-06 13:42 | 33.40317 | -112.15556 | 5908 ft | 265 kts | 250° |
| 2026-05-06 13:43 | 33.39674 | -112.17650 | 6770 ft | 269 kts | 251° |
| 2026-05-06 13:43 | 33.39207 | -112.19828 | 7588 ft | 275 kts | 266° |
| 2026-05-06 13:43 | 33.39306 | -112.22119 | 8523 ft | 276 kts | 279° |
| 2026-05-06 13:43 | 33.39629 | -112.24403 | 9445 ft | 282 kts | 282° |
| 2026-05-06 13:44 | 33.40005 | -112.26734 | 10290 ft | 288 kts | 282° |
| 2026-05-06 13:44 | 33.40401 | -112.29173 | 10665 ft | 312 kts | 282° |
| 2026-05-06 13:44 | 33.40821 | -112.31824 | 11087 ft | 331 kts | 281° |
| 2026-05-06 13:44 | 33.41244 | -112.34563 | 11886 ft | 337 kts | 281° |
| 2026-05-06 13:45 | 33.41662 | -112.37331 | 12780 ft | 340 kts | 281° |
| 2026-05-06 13:45 | 33.42496 | -112.42937 | 14514 ft | 348 kts | 280° |
| 2026-05-06 13:45 | 33.42920 | -112.45811 | 15341 ft | 353 kts | 280° |
| 2026-05-06 13:46 | 33.43349 | -112.48728 | 16137 ft | 358 kts | 281° |
| 2026-05-06 13:46 | 33.43785 | -112.51688 | 16979 ft | 362 kts | 281° |
| 2026-05-06 13:46 | 33.44222 | -112.54667 | 17851 ft | 366 kts | 281° |
| 2026-05-06 13:46 | 33.44665 | -112.57689 | 18609 ft | 372 kts | 281° |
| 2026-05-06 13:47 | 33.45088 | -112.60773 | 19268 ft | 378 kts | 277° |
| 2026-05-06 13:47 | 33.45227 | -112.63938 | 19935 ft | 384 kts | 271° |
| 2026-05-06 13:47 | 33.45216 | -112.67157 | 20645 ft | 389 kts | 270° |
| 2026-05-06 13:47 | 33.45190 | -112.70418 | 21338 ft | 393 kts | 271° |
| 2026-05-06 13:48 | 33.45197 | -112.73669 | 21987 ft | 399 kts | 271° |
| 2026-05-06 13:48 | 33.45231 | -112.77015 | 22621 ft | 404 kts | 272° |
| 2026-05-06 13:48 | 33.45308 | -112.80403 | 23236 ft | 410 kts | 277° |
| 2026-05-06 13:48 | 33.45775 | -112.83785 | 23799 ft | 413 kts | 283° |
| 2026-05-06 13:49 | 33.46422 | -112.87148 | 24376 ft | 415 kts | 285° |
| 2026-05-06 13:49 | 33.47113 | -112.90511 | 24985 ft | 417 kts | 285° |
| 2026-05-06 13:49 | 33.47803 | -112.93889 | 25575 ft | 419 kts | 284° |
| 2026-05-06 13:49 | 33.48480 | -112.97294 | 26142 ft | 421 kts | 284° |
| 2026-05-06 13:50 | 33.49143 | -113.00723 | 26671 ft | 424 kts | 283° |
| 2026-05-06 13:50 | 33.49798 | -113.04186 | 27187 ft | 428 kts | 283° |
| 2026-05-06 13:50 | 33.50449 | -113.07671 | 27709 ft | 430 kts | 283° |
| 2026-05-06 13:50 | 33.51097 | -113.11175 | 28313 ft | 430 kts | 283° |
| 2026-05-06 13:51 | 33.51752 | -113.14710 | 28556 ft | 440 kts | 284° |
| 2026-05-06 13:51 | 33.52421 | -113.18330 | 28899 ft | 446 kts | 284° |
| 2026-05-06 13:51 | 33.53087 | -113.21949 | 29688 ft | 442 kts | 284° |
| 2026-05-06 13:51 | 33.53734 | -113.25478 | 30469 ft | 436 kts | 284° |
| 2026-05-06 13:52 | 33.54380 | -113.28996 | 31231 ft | 429 kts | 283° |
| 2026-05-06 13:52 | 33.55018 | -113.32481 | 31759 ft | 427 kts | 283° |
| 2026-05-06 13:52 | 33.55651 | -113.35934 | 32004 ft | 423 kts | 283° |
| 2026-05-06 13:52 | 33.56285 | -113.39394 | 31982 ft | 424 kts | 283° |
| 2026-05-06 13:53 | 33.57546 | -113.46303 | 31964 ft | 424 kts | 283° |
| 2026-05-06 13:53 | 33.58810 | -113.53231 | 31980 ft | 426 kts | 283° |
| 2026-05-06 13:54 | 33.60110 | -113.60180 | 31975 ft | 428 kts | 284° |
| 2026-05-06 13:54 | 33.61409 | -113.67117 | 31979 ft | 430 kts | 284° |
| 2026-05-06 13:55 | 33.62714 | -113.74134 | 31972 ft | 431 kts | 284° |
| 2026-05-06 13:55 | 33.64017 | -113.81168 | 31985 ft | 432 kts | 284° |
| 2026-05-06 13:56 | 33.65472 | -113.88148 | 31982 ft | 430 kts | 294° |
| 2026-05-06 13:56 | 33.67997 | -113.94644 | 32004 ft | 429 kts | 298° |
| 2026-05-06 13:57 | 33.70175 | -114.00003 | 32003 ft | 430 kts | 297° |
| 2026-05-06 13:57 | 33.72708 | -114.06509 | 32013 ft | 430 kts | 297° |
| 2026-05-06 13:58 | 33.75188 | -114.13060 | 32000 ft | 432 kts | 294° |
| 2026-05-06 13:58 | 33.76579 | -114.20113 | 32029 ft | 437 kts | 280° |
| 2026-05-06 13:59 | 33.77367 | -114.27364 | 32005 ft | 438 kts | 280° |
| 2026-05-06 13:59 | 33.78161 | -114.34648 | 32015 ft | 439 kts | 280° |
| 2026-05-06 14:00 | 33.78990 | -114.41941 | 32002 ft | 441 kts | 281° |
| 2026-05-06 14:00 | 33.79830 | -114.49216 | 32017 ft | 442 kts | 281° |
| 2026-05-06 14:01 | 33.80674 | -114.56548 | 32014 ft | 443 kts | 281° |
| 2026-05-06 14:01 | 33.81514 | -114.63901 | 32010 ft | 444 kts | 281° |
| 2026-05-06 14:02 | 33.82347 | -114.71251 | 32018 ft | 442 kts | 281° |
| 2026-05-06 14:02 | 33.83175 | -114.78580 | 32016 ft | 442 kts | 281° |
| 2026-05-06 14:03 | 33.83997 | -114.85893 | 32016 ft | 441 kts | 281° |
| 2026-05-06 14:03 | 33.84808 | -114.93150 | 32020 ft | 440 kts | 281° |
| 2026-05-06 14:04 | 33.85622 | -115.00454 | 32019 ft | 440 kts | 281° |
| 2026-05-06 14:04 | 33.86433 | -115.07767 | 32016 ft | 440 kts | 282° |
| 2026-05-06 14:05 | 33.87241 | -115.15080 | 32028 ft | 441 kts | 282° |
| 2026-05-06 14:05 | 33.88040 | -115.22366 | 32024 ft | 441 kts | 282° |
| 2026-05-06 14:06 | 33.88840 | -115.29695 | 32032 ft | 442 kts | 282° |
| 2026-05-06 14:06 | 33.89635 | -115.37029 | 32017 ft | 443 kts | 282° |
| 2026-05-06 14:07 | 33.90428 | -115.44379 | 32028 ft | 443 kts | 282° |
| 2026-05-06 14:07 | 33.91218 | -115.51741 | 32045 ft | 443 kts | 282° |
| 2026-05-06 14:08 | 33.92005 | -115.59119 | 31741 ft | 443 kts | 282° |
| 2026-05-06 14:08 | 33.92393 | -115.62781 | 31492 ft | 439 kts | 282° |
| 2026-05-06 14:08 | 33.92765 | -115.66422 | 31236 ft | 439 kts | 281° |
| 2026-05-06 14:09 | 33.93058 | -115.70100 | 30994 ft | 441 kts | 279° |
| 2026-05-06 14:09 | 33.93301 | -115.73775 | 30748 ft | 441 kts | 279° |
| 2026-05-06 14:09 | 33.93531 | -115.77416 | 30512 ft | 441 kts | 279° |
| 2026-05-06 14:09 | 33.93770 | -115.81102 | 30281 ft | 441 kts | 279° |
| 2026-05-06 14:10 | 33.94021 | -115.84785 | 30022 ft | 440 kts | 280° |
| 2026-05-06 14:10 | 33.94279 | -115.88457 | 29730 ft | 438 kts | 280° |
| 2026-05-06 14:10 | 33.94534 | -115.92099 | 29282 ft | 433 kts | 280° |
| 2026-05-06 14:10 | 33.94785 | -115.95687 | 28805 ft | 428 kts | 280° |
| 2026-05-06 14:11 | 33.95031 | -115.99236 | 28325 ft | 423 kts | 280° |
| 2026-05-06 14:11 | 33.95275 | -116.02755 | 27861 ft | 419 kts | 280° |
| 2026-05-06 14:11 | 33.95515 | -116.06232 | 27399 ft | 415 kts | 280° |
| 2026-05-06 14:11 | 33.95753 | -116.09687 | 26925 ft | 412 kts | 280° |
| 2026-05-06 14:12 | 33.95988 | -116.13114 | 26466 ft | 408 kts | 280° |
| 2026-05-06 14:12 | 33.96220 | -116.16517 | 26006 ft | 405 kts | 279° |
| 2026-05-06 14:12 | 33.96437 | -116.19889 | 25551 ft | 404 kts | 277° |
| 2026-05-06 14:12 | 33.96265 | -116.23279 | 25102 ft | 407 kts | 265° |
| 2026-05-06 14:13 | 33.95778 | -116.26588 | 24678 ft | 405 kts | 264° |
| 2026-05-06 14:13 | 33.95300 | -116.29919 | 24228 ft | 402 kts | 264° |
| 2026-05-06 14:13 | 33.94862 | -116.33234 | 23779 ft | 400 kts | 265° |
| 2026-05-06 14:13 | 33.94450 | -116.36529 | 23287 ft | 397 kts | 265° |
| 2026-05-06 14:14 | 33.94048 | -116.39814 | 22787 ft | 394 kts | 265° |
| 2026-05-06 14:14 | 33.93650 | -116.43065 | 22319 ft | 390 kts | 265° |
| 2026-05-06 14:14 | 33.93255 | -116.46289 | 21850 ft | 387 kts | 265° |
| 2026-05-06 14:14 | 33.92861 | -116.49479 | 21395 ft | 384 kts | 265° |
| 2026-05-06 14:15 | 33.92467 | -116.52649 | 20936 ft | 381 kts | 265° |
| 2026-05-06 14:15 | 33.92073 | -116.55788 | 20490 ft | 378 kts | 265° |
| 2026-05-06 14:15 | 33.91672 | -116.58911 | 20035 ft | 376 kts | 264° |
| 2026-05-06 14:15 | 33.91269 | -116.62010 | 19590 ft | 374 kts | 264° |
| 2026-05-06 14:16 | 33.90869 | -116.65095 | 19146 ft | 372 kts | 264° |
| 2026-05-06 14:16 | 33.90473 | -116.68167 | 18664 ft | 371 kts | 264° |
| 2026-05-06 14:16 | 33.90077 | -116.71229 | 18204 ft | 370 kts | 264° |
| 2026-05-06 14:16 | 33.89680 | -116.74283 | 17685 ft | 369 kts | 264° |
| 2026-05-06 14:17 | 33.89297 | -116.77340 | 17116 ft | 369 kts | 265° |
| 2026-05-06 14:17 | 33.88958 | -116.80387 | 16632 ft | 363 kts | 266° |
| 2026-05-06 14:17 | 33.88641 | -116.83363 | 16163 ft | 355 kts | 266° |
| 2026-05-06 14:17 | 33.88330 | -116.86300 | 15722 ft | 353 kts | 266° |
| 2026-05-06 14:18 | 33.88021 | -116.89198 | 15281 ft | 345 kts | 266° |
| 2026-05-06 14:18 | 33.87713 | -116.92030 | 14844 ft | 337 kts | 266° |
| 2026-05-06 14:18 | 33.87414 | -116.94767 | 14448 ft | 334 kts | 266° |
| 2026-05-06 14:18 | 33.87108 | -116.97547 | 14046 ft | 336 kts | 265° |
| 2026-05-06 14:19 | 33.86801 | -117.00337 | 13564 ft | 336 kts | 265° |
| 2026-05-06 14:19 | 33.86493 | -117.03118 | 13071 ft | 334 kts | 265° |
| 2026-05-06 14:19 | 33.86184 | -117.05887 | 12611 ft | 332 kts | 265° |
| 2026-05-06 14:19 | 33.85878 | -117.08634 | 12161 ft | 330 kts | 265° |
| 2026-05-06 14:20 | 33.85575 | -117.11363 | 11724 ft | 328 kts | 265° |
| 2026-05-06 14:20 | 33.85274 | -117.14074 | 11289 ft | 326 kts | 264° |
| 2026-05-06 14:20 | 33.84974 | -117.16772 | 10858 ft | 324 kts | 264° |
| 2026-05-06 14:20 | 33.84673 | -117.19446 | 10441 ft | 319 kts | 264° |
| 2026-05-06 14:21 | 33.84377 | -117.22062 | 10019 ft | 310 kts | 264° |
| 2026-05-06 14:21 | 33.84094 | -117.24563 | 9875 ft | 292 kts | 264° |
| 2026-05-06 14:21 | 33.83826 | -117.26933 | 9557 ft | 287 kts | 264° |
| 2026-05-06 14:21 | 33.83558 | -117.29315 | 9352 ft | 287 kts | 264° |
| 2026-05-06 14:22 | 33.83289 | -117.31702 | 9138 ft | 289 kts | 264° |
| 2026-05-06 14:22 | 33.83019 | -117.34099 | 8921 ft | 289 kts | 264° |
| 2026-05-06 14:22 | 33.82750 | -117.36485 | 8705 ft | 287 kts | 264° |
| 2026-05-06 14:22 | 33.82481 | -117.38856 | 8491 ft | 286 kts | 264° |
| 2026-05-06 14:23 | 33.82215 | -117.41202 | 8291 ft | 278 kts | 264° |
| 2026-05-06 14:23 | 33.81956 | -117.43461 | 8092 ft | 266 kts | 264° |
| 2026-05-06 14:23 | 33.81619 | -117.45590 | 8010 ft | 252 kts | 252° |
| 2026-05-06 14:23 | 33.81004 | -117.47482 | 8014 ft | 233 kts | 249° |
| 2026-05-06 14:24 | 33.80429 | -117.49212 | 8007 ft | 220 kts | 250° |
| 2026-05-06 14:24 | 33.79854 | -117.50985 | 8051 ft | 236 kts | 251° |
| 2026-05-06 14:24 | 33.79657 | -117.52940 | 7903 ft | 243 kts | 284° |
| 2026-05-06 14:24 | 33.80250 | -117.54823 | 7620 ft | 242 kts | 297° |
| 2026-05-06 14:25 | 33.80933 | -117.56677 | 7287 ft | 241 kts | 296° |
| 2026-05-06 14:25 | 33.81592 | -117.58522 | 6961 ft | 237 kts | 295° |
| 2026-05-06 14:25 | 33.82227 | -117.60333 | 6654 ft | 233 kts | 295° |
| 2026-05-06 14:25 | 33.82847 | -117.62123 | 6334 ft | 231 kts | 292° |
| 2026-05-06 14:26 | 33.83130 | -117.64034 | 5967 ft | 233 kts | 275° |
| 2026-05-06 14:26 | 33.83230 | -117.65946 | 5606 ft | 224 kts | 275° |
| 2026-05-06 14:26 | 33.83330 | -117.67770 | 5252 ft | 214 kts | 273° |
| 2026-05-06 14:26 | 33.83341 | -117.69517 | 4956 ft | 205 kts | 271° |
| 2026-05-06 14:27 | 33.83324 | -117.71196 | 4643 ft | 195 kts | 271° |
| 2026-05-06 14:27 | 33.83311 | -117.72769 | 4347 ft | 188 kts | 271° |
| 2026-05-06 14:27 | 33.83304 | -117.74343 | 3834 ft | 193 kts | 270° |
| 2026-05-06 14:27 | 33.83231 | -117.75962 | 3420 ft | 190 kts | 256° |
| 2026-05-06 14:28 | 33.82489 | -117.77166 | 3230 ft | 175 kts | 214° |
| 2026-05-06 14:28 | 33.81505 | -117.77962 | 3018 ft | 172 kts | 214° |
| 2026-05-06 14:28 | 33.80482 | -117.78694 | 2782 ft | 169 kts | 209° |
| 2026-05-06 14:28 | 33.79454 | -117.79353 | 2548 ft | 165 kts | 207° |
| 2026-05-06 14:29 | 33.78463 | -117.79979 | 2325 ft | 153 kts | 207° |
| 2026-05-06 14:29 | 33.77565 | -117.80548 | 2159 ft | 140 kts | 207° |
| 2026-05-06 14:29 | 33.76702 | -117.81094 | 1964 ft | 139 kts | 207° |
| 2026-05-06 14:29 | 33.75847 | -117.81636 | 1775 ft | 138 kts | 207° |
| 2026-05-06 14:30 | 33.74995 | -117.82176 | 1589 ft | 138 kts | 207° |
| 2026-05-06 14:30 | 33.74142 | -117.82716 | 1413 ft | 139 kts | 207° |
| 2026-05-06 14:30 | 33.73297 | -117.83276 | 1281 ft | 138 kts | 208° |
| 2026-05-06 14:30 | 33.72449 | -117.83817 | 1094 ft | 139 kts | 206° |
| 2026-05-06 14:31 | 33.71587 | -117.84351 | 873 ft | 142 kts | 205° |
| 2026-05-06 14:31 | 33.70708 | -117.84901 | 686 ft | 143 kts | 205° |
| 2026-05-06 14:31 | 33.69830 | -117.85447 | 492 ft | 141 kts | 207° |
| 2026-05-06 14:31 | 33.68968 | -117.86000 | 277 ft | 139 kts | 206° |
| 2026-05-06 14:32 | 33.68118 | -117.86537 | 84 ft | 138 kts | 207° |
| 2026-05-06 14:32 | 33.67391 | -117.86998 | 52 ft | 75 kts | 208° |
| 2026-05-06 14:32 | 33.67121 | -117.87170 | 54 ft | 23 kts | 208° |
| 2026-05-06 14:32 | 33.66996 | -117.87220 | 55 ft | 15 kts | 173° |
| 2026-05-06 14:33 | 33.66922 | -117.87168 | 56 ft | 9 kts | 130° |
| 2026-05-06 14:33 | 33.66902 | -117.87115 | 51 ft | 6 kts | 77° |
| 2026-05-06 14:33 | 33.66929 | -117.87078 | 56 ft | 6 kts | 40° |
| 2026-05-06 14:33 | 33.66961 | -117.87046 | 58 ft | 6 kts | 40° |
| 2026-05-06 14:34 | 33.67011 | -117.86995 | 53 ft | 11 kts | 40° |
| 2026-05-06 14:34 | 33.67071 | -117.86932 | 56 ft | 11 kts | 40° |
| 2026-05-06 14:34 | 33.67131 | -117.86873 | 56 ft | 11 kts | 37° |
| 2026-05-06 14:34 | 33.67202 | -117.86821 | 53 ft | 15 kts | 28° |
| 2026-05-06 14:35 | 33.67300 | -117.86745 | 53 ft | 17 kts | 45° |
| 2026-05-06 14:35 | 33.67392 | -117.86661 | 55 ft | 16 kts | 27° |
| 2026-05-06 14:35 | 33.67491 | -117.86598 | 52 ft | 16 kts | 28° |
| 2026-05-06 14:35 | 33.67587 | -117.86538 | 52 ft | 15 kts | 28° |
| 2026-05-06 14:36 | 33.67654 | -117.86495 | 54 ft | 8 kts | 27° |
| 2026-05-06 14:36 | 33.67667 | -117.86460 | 51 ft | 5 kts | 115° |
| 2026-05-06 14:36 | 33.67653 | -117.86428 | 49 ft | 3 kts | 118° |
| 2026-05-06 14:36 | 33.67647 | -117.86415 | 51 ft | 1 kts | 118° |
| 2026-05-06 14:37 | 33.67646 | -117.86415 | 51 ft | 0 kts | 118° |